SVMI/CCS METAR and TAF weather

Enter ICAO airport designator
Station Type Date Time Source
SVMI METAR 2022/05/24 12:03 UTC NOAA

SVMI 241203Z AUTO 13003KT NCD ///// Q1013


Station Type Date Time Source
SVMI Decoded METAR 2022/05/24 12:03 UTC NOAA

Caracas / Maiquetia Aerop. Intl. Simon Bolivar, Venezuela (SVMI) 10-36N 066-59W 48M
May 24, 2022 - 08:03 AM EDT / 2022.05.24 1203 UTC
Wind: from the SE (130 degrees) at 3 MPH (3 KT):0
Pressure (altimeter): 29.91 in. Hg (1013 hPa)
ob: SVMI 241203Z AUTO 13003KT NCD ///// Q1013
cycle: 12

Station Type Date Time Source
SVMI TAF 2022/05/24 12:04 UTC NOAA

TAF SVMI 241000Z 2412/2512 00000KT 9999 SCT016 TX32/2418Z TN22/2507Z
BECMG 1812/1816 09005KT 9999 FEW013 SCT016

Example: see airport list